Time;durP1;ratioP1;P1;durP2;ratioP2;P2;SDS_P1;SDS_P2;PMS_P1;PMS_P2;Temp;Humidity;BMP_temperature;BMP_pressure;BME280_temperature;BME280_humidity;BME280_pressure;Samples;Min_cycle;Max_cycle;Signal;HPM_P1;HPM_P2
2022/08/16 00:02:46;;;;;;;23.48;11.02;;;24.20;63.60;;;;;;9183545;19;20091;-69
2022/08/16 00:05:54;;;;;;;18.80;11.65;;;24.20;63.60;;;;;;9183575;19;20014;-69
2022/08/16 00:09:01;;;;;;;17.75;11.93;;;24.20;63.80;;;;;;9184251;19;20017;-69
2022/08/16 00:12:07;;;;;;;19.05;12.02;;;24.20;63.80;;;;;;9179667;19;20371;-69
2022/08/16 00:15:15;;;;;;;22.85;11.60;;;24.10;63.80;;;;;;9183083;19;20086;-68
2022/08/16 00:18:21;;;;;;;19.70;12.40;;;24.10;63.90;;;;;;9181625;19;20090;-70
2022/08/16 00:21:36;;;;;;;22.80;11.27;;;24.10;63.90;;;;;;9184172;19;20010;-68
2022/08/16 00:24:41;;;;;;;25.30;11.90;;;24.00;64.00;;;;;;9181359;19;20018;-69
2022/08/16 00:27:50;;;;;;;18.00;12.35;;;23.90;63.90;;;;;;9181914;19;20014;-68
2022/08/16 00:30:56;;;;;;;21.25;12.48;;;24.00;64.10;;;;;;9181122;19;20006;-69
2022/08/16 00:34:06;;;;;;;21.92;12.88;;;23.90;64.10;;;;;;9182683;19;20011;-68
2022/08/16 00:37:15;;;;;;;18.67;11.20;;;23.90;64.20;;;;;;9181825;19;20014;-67
2022/08/16 00:40:25;;;;;;;21.15;13.32;;;23.90;64.30;;;;;;9180033;19;20010;-69
2022/08/16 00:43:40;;;;;;;27.23;11.50;;;23.90;64.30;;;;;;9181788;19;20011;-70
2022/08/16 00:46:54;;;;;;;16.65;11.65;;;23.80;64.20;;;;;;9180246;19;20020;-69
2022/08/16 00:50:10;;;;;;;22.60;12.88;;;23.80;64.40;;;;;;9182101;19;20815;-70
2022/08/16 00:53:19;;;;;;;16.83;11.95;;;23.80;64.30;;;;;;9182204;19;20014;-69
2022/08/16 00:56:27;;;;;;;17.35;12.70;;;23.80;64.40;;;;;;9180000;19;20412;-68
2022/08/16 00:59:53;;;;;;;18.73;12.18;;;23.80;64.40;;;;;;9181602;19;20011;-68
2022/08/16 01:03:10;;;;;;;25.70;12.77;;;23.80;64.40;;;;;;9179735;19;20014;-69
2022/08/16 01:06:18;;;;;;;18.10;11.97;;;23.70;64.50;;;;;;9181930;19;20010;-69
2022/08/16 01:09:46;;;;;;;18.70;12.32;;;23.70;64.40;;;;;;9176728;19;20468;-69
2022/08/16 01:12:53;;;;;;;16.85;12.73;;;23.70;64.50;;;;;;9181529;19;20029;-69
2022/08/16 01:16:02;;;;;;;19.23;11.82;;;23.70;64.50;;;;;;9181022;19;20097;-69
2022/08/16 01:19:21;;;;;;;23.10;12.73;;;23.70;64.60;;;;;;9178817;19;20007;-68
2022/08/16 01:22:33;;;;;;;21.90;14.55;;;23.70;64.70;;;;;;9181076;19;20025;-69
2022/08/16 01:25:59;;;;;;;16.45;11.85;;;23.60;64.60;;;;;;9178475;19;20029;-68
2022/08/16 01:29:29;;;;;;;28.10;12.98;;;23.60;64.70;;;;;;9181809;19;20470;-68
2022/08/16 01:32:55;;;;;;;21.60;11.65;;;23.60;64.70;;;;;;9181320;19;20014;-71
2022/08/16 01:36:19;;;;;;;18.15;12.68;;;23.50;64.60;;;;;;9178293;19;20006;-69
2022/08/16 01:39:30;;;;;;;21.77;11.88;;;23.50;64.70;;;;;;9176735;19;20011;-69
2022/08/16 01:42:43;;;;;;;16.52;12.45;;;23.50;64.80;;;;;;9183362;19;20045;-69
2022/08/16 01:45:55;;;;;;;21.90;12.65;;;23.40;64.90;;;;;;9189373;19;20502;-68
2022/08/16 01:49:06;;;;;;;19.15;13.20;;;23.40;65.00;;;;;;9189060;19;20014;-70
2022/08/16 01:52:14;;;;;;;20.55;14.05;;;23.30;64.90;;;;;;9185666;19;20038;-68
2022/08/16 01:55:47;;;;;;;19.08;12.82;;;23.30;65.00;;;;;;9187679;19;20018;-70
2022/08/16 01:59:03;;;;;;;19.77;13.02;;;23.30;65.00;;;;;;9184375;19;20025;-68
2022/08/16 02:02:09;;;;;;;23.23;14.02;;;23.30;65.20;;;;;;9187482;19;20015;-69
2022/08/16 02:05:31;;;;;;;24.60;14.15;;;23.20;65.10;;;;;;9186585;19;20069;-68
2022/08/16 02:08:39;;;;;;;25.10;14.60;;;23.20;65.10;;;;;;9186401;19;20070;-68
2022/08/16 02:11:47;;;;;;;22.38;14.30;;;23.20;65.20;;;;;;9184315;19;20090;-69
2022/08/16 02:15:00;;;;;;;21.55;14.23;;;23.10;65.30;;;;;;9186942;19;20017;-68
2022/08/16 02:18:06;;;;;;;21.95;13.50;;;23.10;65.30;;;;;;9186199;19;20015;-70
2022/08/16 02:21:18;;;;;;;20.45;13.70;;;23.10;65.30;;;;;;9188376;19;20014;-68
2022/08/16 02:24:35;;;;;;;21.42;13.60;;;23.00;65.40;;;;;;9186923;19;20022;-68
2022/08/16 02:27:47;;;;;;;20.80;13.13;;;23.00;65.50;;;;;;9188192;19;20018;-69
2022/08/16 02:31:01;;;;;;;18.73;12.98;;;23.00;65.50;;;;;;9187443;19;20495;-68
2022/08/16 02:34:06;;;;;;;21.50;14.18;;;22.90;65.50;;;;;;9186332;19;20049;-68
2022/08/16 02:37:17;;;;;;;22.63;13.23;;;22.90;65.50;;;;;;9185936;19;20014;-69
2022/08/16 02:40:26;;;;;;;17.88;11.85;;;22.90;65.60;;;;;;9182869;19;20016;-68
2022/08/16 02:43:35;;;;;;;20.70;13.05;;;22.90;65.70;;;;;;9185810;19;20495;-69
2022/08/16 02:46:46;;;;;;;19.48;12.38;;;22.80;65.70;;;;;;9185786;19;20022;-69
2022/08/16 02:49:58;;;;;;;18.35;12.32;;;22.80;65.80;;;;;;9186031;19;20018;-68
2022/08/16 02:53:23;;;;;;;23.35;12.73;;;22.80;65.80;;;;;;9186773;19;20018;-67
2022/08/16 02:56:30;;;;;;;17.85;11.82;;;22.70;65.80;;;;;;9185594;19;20006;-68
2022/08/16 02:59:36;;;;;;;21.30;12.15;;;22.70;65.80;;;;;;9182451;19;20045;-69
2022/08/16 03:02:48;;;;;;;18.60;11.85;;;22.70;65.80;;;;;;9184497;19;20040;-70
2022/08/16 03:06:00;;;;;;;17.40;10.50;;;22.70;65.90;;;;;;9186690;19;20098;-69
2022/08/16 03:09:06;;;;;;;15.55;11.45;;;22.70;65.90;;;;;;9186374;19;20019;-69
2022/08/16 03:12:20;;;;;;;;;;;22.60;65.90;;;;;;9185825;19;20010;-69
2022/08/16 03:15:34;;;;;;;16.58;11.13;;;22.60;65.80;;;;;;9184310;19;19930;-68
2022/08/16 03:18:43;;;;;;;15.85;10.35;;;22.60;65.70;;;;;;9184350;19;20014;-69
2022/08/16 03:21:49;;;;;;;14.88;10.18;;;22.50;65.80;;;;;;9184955;19;20074;-68
2022/08/16 03:24:55;;;;;;;17.35;11.13;;;22.50;65.80;;;;;;9183376;19;20022;-69
2022/08/16 03:28:01;;;;;;;17.40;10.00;;;22.50;65.90;;;;;;9183181;19;20479;-69
2022/08/16 03:31:12;;;;;;;17.95;11.35;;;22.40;65.90;;;;;;9183375;19;20037;-68
2022/08/16 03:34:21;;;;;;;19.60;10.82;;;22.40;65.90;;;;;;9183585;19;20036;-69
2022/08/16 03:37:27;;;;;;;18.63;10.45;;;22.40;66.10;;;;;;9183427;19;20014;-68
2022/08/16 03:40:35;;;;;;;18.27;10.55;;;22.40;66.10;;;;;;9181207;19;20025;-70
2022/08/16 03:43:40;;;;;;;17.30;10.50;;;22.30;66.10;;;;;;9183967;19;20025;-69
2022/08/16 03:46:57;;;;;;;15.13;10.18;;;22.30;66.10;;;;;;9183644;19;20025;-71
2022/08/16 03:50:11;;;;;;;16.38;10.98;;;22.30;66.10;;;;;;9182762;19;20380;-69
2022/08/16 03:53:31;;;;;;;18.67;10.52;;;22.30;66.20;;;;;;9182554;19;20010;-68
2022/08/16 03:56:43;;;;;;;16.80;10.80;;;22.30;66.20;;;;;;9181921;19;20352;-69
2022/08/16 04:00:11;;;;;;;14.93;10.18;;;22.20;66.10;;;;;;9180651;19;20034;-68
2022/08/16 04:03:38;;;;;;;14.73;10.20;;;22.20;66.20;;;;;;9181714;19;20056;-69
2022/08/16 04:06:48;;;;;;;16.85;10.75;;;22.20;66.20;;;;;;9181245;19;20018;-69
2022/08/16 04:09:55;;;;;;;13.52;10.25;;;22.10;66.20;;;;;;9178048;19;20015;-70
2022/08/16 04:13:00;;;;;;;17.60;10.88;;;22.10;66.20;;;;;;9183487;19;20089;-69
2022/08/16 04:16:11;;;;;;;13.30;10.23;;;22.10;66.30;;;;;;9181596;19;20448;-69
2022/08/16 04:19:36;;;;;;;16.17;11.10;;;22.00;66.30;;;;;;9180574;19;20018;-68
2022/08/16 04:22:53;;;;;;;26.05;11.02;;;22.00;66.30;;;;;;9181727;19;20472;-69
2022/08/16 04:26:00;;;;;;;18.10;10.20;;;21.90;66.30;;;;;;9181292;19;20014;-69
2022/08/16 04:29:08;;;;;;;17.67;10.70;;;21.90;66.30;;;;;;9180827;19;20015;-68
2022/08/16 04:32:28;;;;;;;15.48;10.23;;;21.90;66.40;;;;;;9181813;19;20021;-69
2022/08/16 04:35:34;;;;;;;15.88;11.05;;;21.80;66.40;;;;;;9181005;19;20011;-69
2022/08/16 04:38:45;;;;;;;15.32;10.50;;;21.80;66.50;;;;;;9180061;19;20014;-68
2022/08/16 04:41:54;;;;;;;17.58;12.07;;;21.70;66.50;;;;;;9179456;19;20478;-68
2022/08/16 04:45:01;;;;;;;17.88;10.82;;;21.70;66.50;;;;;;9180803;19;20029;-67
2022/08/16 04:48:10;;;;;;;15.52;11.52;;;21.70;66.60;;;;;;9180728;19;20069;-69
2022/08/16 04:51:34;;;;;;;19.53;12.20;;;21.70;66.70;;;;;;9179972;19;20668;-68
2022/08/16 04:54:42;;;;;;;18.80;12.88;;;21.60;66.70;;;;;;9179618;19;20027;-69
2022/08/16 04:57:50;;;;;;;29.45;13.52;;;21.50;66.70;;;;;;9179403;19;20040;-70
2022/08/16 05:00:58;;;;;;;38.50;13.50;;;21.50;66.80;;;;;;9177897;19;20006;-70
2022/08/16 05:04:05;;;;;;;29.00;13.75;;;21.50;66.90;;;;;;9180061;19;20451;-70
2022/08/16 05:07:24;;;;;;;35.72;14.20;;;21.40;66.90;;;;;;9179314;19;20014;-70
2022/08/16 05:10:42;;;;;;;24.90;12.75;;;21.40;67.60;;;;;;9175779;19;20914;-71
2022/08/16 05:13:49;;;;;;;30.60;13.50;;;21.40;67.10;;;;;;9181181;19;20475;-71
2022/08/16 05:17:00;;;;;;;38.72;14.63;;;21.40;67.30;;;;;;9176425;19;20018;-70
2022/08/16 05:20:05;;;;;;;36.05;14.35;;;21.30;67.20;;;;;;9179128;19;20015;-69
2022/08/16 05:23:33;;;;;;;21.38;13.30;;;21.30;67.30;;;;;;9179327;19;20037;-70
2022/08/16 05:26:42;;;;;;;21.85;13.43;;;21.30;67.40;;;;;;9178568;19;20015;-70
2022/08/16 05:29:56;;;;;;;19.45;13.18;;;21.30;67.60;;;;;;9178501;19;20027;-69
2022/08/16 05:33:08;;;;;;;19.50;13.45;;;21.20;67.60;;;;;;9178660;19;20525;-70
2022/08/16 05:36:23;;;;;;;23.67;12.90;;;21.20;67.70;;;;;;9177746;19;20028;-71
2022/08/16 05:39:40;;;;;;;19.77;12.55;;;21.20;67.70;;;;;;9176872;19;20022;-70
2022/08/16 05:42:51;;;;;;;21.80;13.38;;;21.20;68.50;;;;;;9180343;19;20551;-69
2022/08/16 05:46:01;;;;;;;19.15;12.57;;;21.20;68.00;;;;;;9177652;19;20015;-70
2022/08/16 05:49:28;;;;;;;23.27;13.00;;;21.30;68.10;;;;;;9177813;19;20030;-70
2022/08/16 05:52:45;;;;;;;19.33;12.07;;;21.30;68.20;;;;;;9178081;19;20032;-70
2022/08/16 05:55:51;;;;;;;19.70;12.38;;;21.30;68.20;;;;;;9179880;19;20010;-70
2022/08/16 05:59:00;;;;;;;20.23;13.93;;;21.40;68.30;;;;;;9178020;19;20070;-70
2022/08/16 06:02:08;;;;;;;22.00;13.13;;;21.40;68.40;;;;;;9177207;19;20109;-69
2022/08/16 06:05:14;;;;;;;25.08;13.90;;;21.50;68.50;;;;;;9177779;19;20011;-70
2022/08/16 06:08:19;;;;;;;18.17;11.88;;;21.60;68.50;;;;;;9178001;19;20011;-70
2022/08/16 06:11:46;;;;;;;19.00;13.25;;;21.60;68.50;;;;;;9175950;19;20081;-71
2022/08/16 06:14:57;;;;;;;17.90;12.85;;;21.70;68.50;;;;;;9177137;19;20452;-70
2022/08/16 06:18:04;;;;;;;18.65;13.55;;;21.80;68.50;;;;;;9176843;19;20021;-71
2022/08/16 06:21:10;;;;;;;21.38;13.57;;;21.90;68.40;;;;;;9175973;19;20018;-69
2022/08/16 06:24:16;;;;;;;18.55;13.02;;;22.00;68.40;;;;;;9177048;19;20372;-69
2022/08/16 06:27:41;;;;;;;20.75;13.52;;;22.10;68.40;;;;;;9178315;19;20337;-70
2022/08/16 06:31:07;;;;;;;22.52;13.20;;;22.20;68.30;;;;;;9185852;19;20123;-70
2022/08/16 06:34:17;;;;;;;22.45;13.50;;;22.30;68.30;;;;;;9183447;19;20019;-70
2022/08/16 06:37:44;;;;;;;18.35;12.55;;;22.40;68.20;;;;;;9185319;19;20406;-70
2022/08/16 06:40:56;;;;;;;21.95;12.93;;;22.60;68.20;;;;;;9182440;19;20019;-70
2022/08/16 06:44:01;;;;;;;18.65;12.70;;;22.70;68.10;;;;;;9185334;19;20578;-71
2022/08/16 06:47:12;;;;;;;23.23;13.90;;;22.80;68.00;;;;;;9185228;19;20049;-71
2022/08/16 06:50:21;;;;;;;22.50;13.63;;;23.00;68.00;;;;;;9185014;19;20038;-69
2022/08/16 06:53:39;;;;;;;18.55;13.32;;;23.10;67.90;;;;;;9185203;19;20017;-70
2022/08/16 06:56:46;;;;;;;18.02;12.65;;;23.20;67.80;;;;;;9184423;19;20026;-69
2022/08/16 06:59:58;;;;;;;16.73;12.38;;;23.40;67.70;;;;;;9184377;19;20015;-71
2022/08/16 07:03:19;;;;;;;20.45;13.20;;;23.50;67.60;;;;;;9184755;19;20019;-71
2022/08/16 07:06:32;;;;;;;18.10;12.93;;;23.80;67.50;;;;;;9184579;19;20485;-71
2022/08/16 07:09:43;;;;;;;16.88;12.75;;;23.90;67.40;;;;;;9180442;19;20390;-70
2022/08/16 07:12:49;;;;;;;17.70;12.88;;;24.00;67.20;;;;;;9183943;19;20028;-71
2022/08/16 07:16:15;;;;;;;17.25;11.90;;;24.20;67.00;;;;;;9183846;19;20010;-71
2022/08/16 07:19:31;;;;;;;17.08;11.82;;;24.50;66.90;;;;;;9185295;19;20017;-72
2022/08/16 07:22:57;;;;;;;19.15;12.20;;;24.60;66.70;;;;;;9183609;19;20494;-70
2022/08/16 07:26:11;;;;;;;18.15;12.43;;;24.80;66.60;;;;;;9183613;19;20018;-71
2022/08/16 07:29:30;;;;;;;23.02;12.25;;;25.00;66.40;;;;;;9181798;19;20472;-70
2022/08/16 07:32:37;;;;;;;25.45;16.75;;;25.20;66.20;;;;;;9183921;19;20018;-70
2022/08/16 07:35:46;;;;;;;21.02;13.02;;;25.40;66.10;;;;;;9183061;19;20023;-71
2022/08/16 07:38:54;;;;;;;21.50;13.15;;;25.60;65.80;;;;;;9181585;19;20014;-70
2022/08/16 07:42:00;;;;;;;18.35;12.07;;;25.70;65.50;;;;;;9179215;19;20498;-70
2022/08/16 07:45:10;;;;;;;23.45;14.35;;;25.90;65.40;;;;;;9183201;19;20025;-70
2022/08/16 07:48:20;;;;;;;17.00;10.88;;;26.10;65.20;;;;;;9182817;19;20471;-71
2022/08/16 07:51:35;;;;;;;22.75;13.45;;;26.30;65.00;;;;;;9179491;19;20498;-70
2022/08/16 07:54:42;;;;;;;20.45;11.73;;;26.50;64.70;;;;;;9176498;19;20021;-70
2022/08/16 07:57:50;;;;;;;19.08;12.65;;;26.60;64.50;;;;;;9177649;19;20015;-71
2022/08/16 08:01:09;;;;;;;17.27;11.73;;;26.70;64.40;;;;;;9174888;19;20014;-72
2022/08/16 08:04:25;;;;;;;18.35;10.07;;;26.90;64.20;;;;;;9178867;19;20022;-70
2022/08/16 08:07:40;;;;;;;17.25;11.93;;;27.10;64.00;;;;;;9176546;19;20022;-70
2022/08/16 08:10:49;;;;;;;17.73;10.50;;;27.20;63.80;;;;;;9177819;19;20014;-71
2022/08/16 08:13:56;;;;;;;13.20;9.20;;;27.30;63.50;;;;;;9181265;19;20753;-70
2022/08/16 08:17:08;;;;;;;16.05;9.63;;;27.50;63.30;;;;;;9178121;19;20479;-70
2022/08/16 08:20:17;;;;;;;17.92;10.10;;;27.60;63.10;;;;;;9179766;19;20444;-72
2022/08/16 08:23:35;;;;;;;19.73;8.25;;;27.70;62.80;;;;;;9176649;19;20036;-71
2022/08/16 08:26:46;;;;;;;16.65;8.50;;;27.90;62.60;;;;;;9174679;19;20471;-71
2022/08/16 08:29:55;;;;;;;15.07;8.60;;;28.00;62.40;;;;;;9176592;19;20029;-72
2022/08/16 08:33:22;;;;;;;15.02;8.23;;;28.20;62.20;;;;;;9174206;19;20104;-70
2022/08/16 08:36:30;;;;;;;16.90;7.95;;;28.30;61.90;;;;;;9171100;19;20030;-70
2022/08/16 08:39:44;;;;;;;18.45;7.68;;;28.50;61.70;;;;;;9169258;19;20030;-71
2022/08/16 08:43:01;;;;;;;15.70;7.88;;;28.60;61.40;;;;;;9167783;19;20015;-70
2022/08/16 08:46:20;;;;;;;14.63;6.15;;;28.70;61.20;;;;;;9169582;19;20022;-71
2022/08/16 08:49:27;;;;;;;17.20;6.93;;;28.90;61.00;;;;;;9171253;19;20026;-70
2022/08/16 08:52:54;;;;;;;9.90;6.40;;;29.00;60.90;;;;;;9172464;19;20014;-70
2022/08/16 08:56:03;;;;;;;10.38;6.32;;;29.20;60.60;;;;;;9169132;19;20022;-70
2022/08/16 08:59:30;;;;;;;12.55;7.40;;;29.30;60.20;;;;;;9167546;19;20014;-70
2022/08/16 09:02:35;;;;;;;12.05;7.60;;;29.50;60.00;;;;;;9168856;19;20019;-69
2022/08/16 09:05:41;;;;;;;13.18;6.60;;;29.60;59.80;;;;;;9167295;19;20029;-71
2022/08/16 09:08:48;;;;;;;10.40;6.78;;;29.70;59.60;;;;;;9170135;19;20086;-71
2022/08/16 09:11:57;;;;;;;14.13;7.03;;;29.80;59.40;;;;;;9165649;19;20081;-70
2022/08/16 09:15:20;;;;;;;13.00;7.13;;;29.90;59.10;;;;;;9173289;19;20014;-71
2022/08/16 09:18:28;;;;;;;10.50;6.30;;;29.90;58.90;;;;;;9170993;19;20018;-71
2022/08/16 09:21:41;;;;;;;12.55;6.18;;;30.00;58.70;;;;;;9170655;19;20014;-70
2022/08/16 09:24:49;;;;;;;14.10;6.47;;;30.10;58.60;;;;;;9172361;19;20046;-70
2022/08/16 09:28:03;;;;;;;10.75;6.03;;;30.20;58.30;;;;;;9172240;19;20464;-69
2022/08/16 09:31:32;;;;;;;9.07;5.18;;;30.40;58.20;;;;;;9172186;19;20014;-69
2022/08/16 09:34:45;;;;;;;12.93;6.63;;;30.50;58.10;;;;;;9165659;19;20514;-70
2022/08/16 09:37:50;;;;;;;9.23;6.47;;;30.60;58.00;;;;;;9171754;19;20077;-72
2022/08/16 09:41:07;;;;;;;8.40;5.47;;;30.70;57.80;;;;;;9168723;19;20428;-71
2022/08/16 09:44:23;;;;;;;9.43;6.20;;;30.80;57.50;;;;;;9169680;19;20111;-69
2022/08/16 09:47:53;;;;;;;12.30;6.10;;;30.90;57.20;;;;;;9172914;19;20111;-71
2022/08/16 09:51:01;;;;;;;;;;;31.00;57.20;;;;;;9168484;19;20015;-69
2022/08/16 09:54:09;;;;;;;9.27;5.57;;;31.10;57.20;;;;;;9170309;19;19922;-69
2022/08/16 09:57:21;;;;;;;11.40;5.53;;;31.20;57.10;;;;;;9168382;19;20018;-71
2022/08/16 10:00:29;;;;;;;9.18;4.63;;;31.30;56.80;;;;;;9166816;19;20015;-70
2022/08/16 10:03:49;;;;;;;8.55;5.10;;;31.40;56.50;;;;;;9170663;19;20503;-71
2022/08/16 10:07:07;;;;;;;6.28;5.15;;;31.40;56.30;;;;;;9178944;19;20475;-71
2022/08/16 10:10:21;;;;;;;12.37;5.63;;;31.50;56.10;;;;;;9170928;19;20060;-70
2022/08/16 10:13:33;;;;;;;12.40;4.80;;;31.60;56.10;;;;;;9180717;19;20467;-70
2022/08/16 10:16:44;;;;;;;;;;;31.70;55.80;;;;;;9179226;19;20026;-70
2022/08/16 10:19:54;;;;;;;6.93;5.10;;;31.70;55.80;;;;;;9176523;19;19934;-70
2022/08/16 10:22:59;;;;;;;10.25;4.07;;;31.80;55.70;;;;;;9179403;19;20019;-70
2022/08/16 10:26:11;;;;;;;12.43;5.07;;;31.90;55.40;;;;;;9178634;19;20394;-70
2022/08/16 10:29:36;;;;;;;10.80;5.53;;;32.00;55.10;;;;;;9180217;19;20025;-70
2022/08/16 10:33:04;;;;;;;10.75;4.90;;;32.10;54.90;;;;;;9181484;19;20031;-70
2022/08/16 10:36:11;;;;;;;5.78;4.43;;;32.20;54.60;;;;;;9177956;19;20022;-69
2022/08/16 10:39:36;;;;;;;8.65;4.35;;;32.20;54.40;;;;;;9176598;19;20078;-73
2022/08/16 10:42:48;;;;;;;9.68;3.92;;;32.30;54.20;;;;;;9182921;19;20018;-71
2022/08/16 10:45:54;;;;;;;9.05;3.70;;;32.40;54.10;;;;;;9182478;19;20014;-72
2022/08/16 10:49:07;;;;;;;8.55;3.05;;;32.50;53.90;;;;;;9187660;19;20048;-72
2022/08/16 10:52:13;;;;;;;4.30;3.47;;;32.60;53.30;;;;;;9185486;19;20094;-72
2022/08/16 10:55:23;;;;;;;4.18;3.20;;;32.70;53.10;;;;;;9186506;19;20022;-74
2022/08/16 10:58:48;;;;;;;6.57;3.40;;;32.70;52.80;;;;;;9184342;19;20019;-72
2022/08/16 11:01:53;;;;;;;6.50;2.80;;;32.80;52.50;;;;;;9185422;19;20536;-72
2022/08/16 11:05:21;;;;;;;7.70;3.10;;;32.80;52.20;;;;;;9185803;19;20027;-71
2022/08/16 11:08:27;;;;;;;6.28;3.35;;;32.90;51.90;;;;;;9186503;19;20472;-72
2022/08/16 11:11:41;;;;;;;9.38;3.47;;;33.00;51.70;;;;;;9180915;19;20061;-72
2022/08/16 11:15:07;;;;;;;5.65;3.28;;;33.00;51.40;;;;;;9175917;19;20034;-72
2022/08/16 11:18:21;;;;;;;19.70;4.38;;;33.00;51.20;;;;;;9171899;19;20456;-72
2022/08/16 11:21:49;;;;;;;7.35;3.33;;;33.10;51.00;;;;;;9173365;19;20035;-72
2022/08/16 11:25:16;;;;;;;5.60;3.28;;;33.10;50.60;;;;;;9174491;19;20094;-72
2022/08/16 11:28:41;;;;;;;7.93;3.67;;;33.20;50.60;;;;;;9173596;19;20031;-71
2022/08/16 11:32:07;;;;;;;7.72;3.28;;;33.20;50.30;;;;;;9173249;19;20035;-73
2022/08/16 11:35:18;;;;;;;7.22;4.15;;;33.30;50.80;;;;;;9173797;19;20027;-72
2022/08/16 11:38:45;;;;;;;9.43;3.55;;;33.30;49.90;;;;;;9174390;19;20121;-72
2022/08/16 11:42:01;;;;;;;9.30;3.75;;;33.40;49.70;;;;;;9171976;19;20029;-74
2022/08/16 11:45:21;;;;;;;15.55;4.22;;;33.40;49.60;;;;;;9173037;19;20026;-73
2022/08/16 11:48:28;;;;;;;5.65;3.30;;;33.50;49.60;;;;;;9173092;19;20049;-72
2022/08/16 11:51:35;;;;;;;5.15;2.95;;;33.50;49.40;;;;;;9171948;19;20025;-73
2022/08/16 11:54:42;;;;;;;6.13;2.97;;;33.60;49.20;;;;;;9172555;19;20788;-73
2022/08/16 11:57:48;;;;;;;7.90;3.15;;;33.60;48.80;;;;;;9170029;19;20021;-71
2022/08/16 12:01:01;;;;;;;6.03;2.83;;;33.70;48.70;;;;;;9172802;19;20022;-72
2022/08/16 12:04:06;;;;;;;4.43;2.83;;;33.70;48.50;;;;;;9169390;19;20050;-72
2022/08/16 12:07:13;;;;;;;8.88;3.05;;;33.70;48.40;;;;;;9172843;19;20061;-72
2022/08/16 12:10:24;;;;;;;6.18;2.80;;;33.80;48.10;;;;;;9169656;19;20018;-72
2022/08/16 12:13:31;;;;;;;5.22;2.70;;;33.80;47.90;;;;;;9175131;19;20584;-72
2022/08/16 12:16:37;;;;;;;4.25;2.92;;;33.90;47.90;;;;;;9173518;19;20014;-72
2022/08/16 12:19:42;;;;;;;4.68;2.28;;;34.00;47.80;;;;;;9174262;19;20033;-72
2022/08/16 12:22:49;;;;;;;5.85;3.08;;;34.00;47.60;;;;;;9171314;19;20345;-73
2022/08/16 12:25:59;;;;;;;5.47;2.85;;;34.10;47.40;;;;;;9170852;19;20484;-73
2022/08/16 12:29:10;;;;;;;4.95;2.17;;;34.10;47.10;;;;;;9173552;19;20673;-74
2022/08/16 12:32:15;;;;;;;10.20;2.60;;;34.20;47.10;;;;;;9172203;19;20023;-73
2022/08/16 12:35:41;;;;;;;7.07;2.45;;;34.20;46.80;;;;;;9172804;19;20014;-72
2022/08/16 12:38:47;;;;;;;3.50;2.50;;;34.30;46.60;;;;;;9169047;19;20018;-73
2022/08/16 12:41:55;;;;;;;4.78;2.25;;;34.40;46.50;;;;;;9174618;19;20017;-73
2022/08/16 12:45:01;;;;;;;4.40;2.42;;;34.40;46.20;;;;;;9175969;19;20081;-73
2022/08/16 12:51:41;;;;;;;3.63;2.70;;;34.50;46.10;;;;;;9174950;19;20059;-74
2022/08/16 12:55:05;;;;;;;4.90;2.30;;;34.50;46.10;;;;;;9173397;19;20090;-73
2022/08/16 12:58:16;;;;;;;3.50;2.33;;;34.50;45.90;;;;;;9176088;19;20021;-72
2022/08/16 13:01:44;;;;;;;6.75;2.53;;;34.50;45.60;;;;;;9175097;19;20090;-72
2022/08/16 13:04:49;;;;;;;4.03;3.20;;;34.50;45.70;;;;;;9171789;19;20006;-73
2022/08/16 13:08:00;;;;;;;9.90;2.90;;;34.60;45.60;;;;;;9172926;19;20017;-74
2022/08/16 13:11:06;;;;;;;4.97;2.85;;;34.60;45.60;;;;;;9172091;19;20054;-74
2022/08/16 13:14:15;;;;;;;5.13;2.70;;;34.60;45.40;;;;;;9172783;19;20018;-71
2022/08/16 13:17:35;;;;;;;5.88;2.90;;;34.60;45.20;;;;;;9174932;19;20014;-73
2022/08/16 13:20:47;;;;;;;11.88;3.13;;;34.50;45.20;;;;;;9174264;19;20021;-72
2022/08/16 13:23:52;;;;;;;9.40;2.70;;;34.60;45.10;;;;;;9171858;19;20014;-73
2022/08/16 13:26:59;;;;;;;4.78;2.78;;;34.50;45.00;;;;;;9173915;19;20014;-73
2022/08/16 13:30:08;;;;;;;3.08;2.50;;;34.40;44.90;;;;;;9174920;19;20016;-72
2022/08/16 13:33:36;;;;;;;11.02;2.63;;;34.40;44.80;;;;;;9174134;19;20014;-73
2022/08/16 13:36:41;;;;;;;4.88;2.72;;;34.40;44.80;;;;;;9177281;19;20015;-72
2022/08/16 13:39:54;;;;;;;3.25;2.50;;;34.30;44.80;;;;;;9176315;19;20014;-73
2022/08/16 13:42:59;;;;;;;4.85;2.72;;;34.20;44.80;;;;;;9170646;19;20463;-72
2022/08/16 13:46:09;;;;;;;4.40;2.30;;;34.10;44.70;;;;;;9171220;19;20106;-72
2022/08/16 13:49:15;;;;;;;3.80;2.53;;;34.00;44.60;;;;;;9174225;19;20015;-73
2022/08/16 13:52:20;;;;;;;5.75;2.45;;;34.00;44.80;;;;;;9172579;19;20014;-72
2022/08/16 13:55:28;;;;;;;5.35;2.80;;;33.90;44.70;;;;;;9173232;19;20477;-73
2022/08/16 13:58:35;;;;;;;6.78;2.40;;;33.80;44.60;;;;;;9168348;19;20465;-72
2022/08/16 14:02:05;;;;;;;12.63;2.63;;;33.70;44.60;;;;;;9172174;19;20025;-73
2022/08/16 14:05:12;;;;;;;4.13;2.47;;;33.60;44.60;;;;;;9166959;19;20034;-73
2022/08/16 14:08:23;;;;;;;8.73;3.00;;;33.50;44.60;;;;;;9171612;19;20011;-73
2022/08/16 14:11:31;;;;;;;6.22;2.30;;;33.40;44.60;;;;;;9165895;19;20798;-74
2022/08/16 14:14:36;;;;;;;4.28;2.55;;;33.30;44.60;;;;;;9177182;19;20014;-74
2022/08/16 14:17:44;;;;;;;5.65;2.90;;;33.20;44.60;;;;;;9179052;19;20037;-72
2022/08/16 14:21:13;;;;;;;4.95;2.65;;;33.20;44.70;;;;;;9178848;19;21040;-75
2022/08/16 14:24:21;;;;;;;9.32;3.03;;;33.20;44.80;;;;;;9176188;19;20021;-72
2022/08/16 14:27:34;;;;;;;8.55;2.90;;;33.10;44.80;;;;;;9178612;19;20721;-72
2022/08/16 14:30:43;;;;;;;10.63;3.25;;;33.10;44.80;;;;;;9176778;19;20006;-72
2022/08/16 14:33:51;;;;;;;4.78;2.83;;;33.00;44.80;;;;;;9176277;19;20033;-74
2022/08/16 14:36:56;;;;;;;9.55;3.55;;;33.10;44.80;;;;;;9176947;19;20018;-73
2022/08/16 14:40:04;;;;;;;4.75;3.03;;;33.00;44.80;;;;;;9174286;19;20463;-72
2022/08/16 14:43:09;;;;;;;8.13;3.10;;;33.00;44.70;;;;;;9175081;19;20506;-73
2022/08/16 14:46:19;;;;;;;9.98;2.97;;;33.00;44.70;;;;;;9176323;19;20025;-72
2022/08/16 14:49:26;;;;;;;4.80;2.80;;;33.00;44.80;;;;;;9178739;19;20014;-73
2022/08/16 14:52:31;;;;;;;3.88;2.60;;;32.90;44.60;;;;;;9184230;19;20019;-73
2022/08/16 14:55:57;;;;;;;9.10;3.10;;;32.90;44.60;;;;;;9184482;19;20020;-73
2022/08/16 14:59:02;;;;;;;6.68;3.30;;;32.90;44.70;;;;;;9185278;19;20395;-73
2022/08/16 15:02:14;;;;;;;11.15;2.75;;;32.90;44.70;;;;;;9184005;19;20460;-74
2022/08/16 15:05:43;;;;;;;8.15;2.90;;;32.90;44.60;;;;;;9182262;19;20052;-75
2022/08/16 15:08:48;;;;;;;6.93;3.10;;;32.90;44.60;;;;;;9184209;19;20022;-73
2022/08/16 15:11:54;;;;;;;3.85;2.80;;;33.00;44.70;;;;;;9180306;19;20040;-74
2022/08/16 15:14:59;;;;;;;9.77;2.97;;;33.00;44.70;;;;;;9186134;19;20025;-75
2022/08/16 15:18:05;;;;;;;8.32;3.08;;;33.00;44.60;;;;;;9175419;19;20047;-74
2022/08/16 15:21:18;;;;;;;5.82;3.05;;;33.00;44.60;;;;;;9178976;19;20022;-73
2022/08/16 15:24:25;;;;;;;7.28;3.15;;;33.00;44.50;;;;;;9177341;19;20018;-75
2022/08/16 15:27:32;;;;;;;5.57;2.97;;;33.00;44.50;;;;;;9179576;19;20024;-73
2022/08/16 15:30:41;;;;;;;8.98;3.25;;;33.00;44.40;;;;;;9177767;19;20023;-73
2022/08/16 15:34:05;;;;;;;4.88;2.55;;;32.90;44.40;;;;;;9177871;19;20038;-73
2022/08/16 15:37:13;;;;;;;6.45;3.67;;;32.90;44.40;;;;;;9178723;19;20011;-73
2022/08/16 15:40:18;;;;;;;5.55;3.28;;;32.90;44.30;;;;;;9174852;19;20159;-73
2022/08/16 15:43:39;;;;;;;8.30;2.90;;;32.90;44.30;;;;;;9175463;19;20472;-74
2022/08/16 15:46:44;;;;;;;10.25;3.53;;;32.80;44.30;;;;;;9178986;19;20025;-72
2022/08/16 15:50:01;;;;;;;10.55;3.33;;;32.80;44.30;;;;;;9176891;19;20010;-74
2022/08/16 15:53:15;;;;;;;9.20;3.78;;;32.80;44.40;;;;;;9177084;19;20041;-75
2022/08/16 15:56:20;;;;;;;5.88;3.72;;;32.70;44.40;;;;;;9174747;19;20476;-73
2022/08/16 15:59:31;;;;;;;8.82;3.55;;;32.70;44.40;;;;;;9176047;19;20010;-75
2022/08/16 16:03:01;;;;;;;6.80;3.45;;;32.60;44.40;;;;;;9174903;19;20641;-73
2022/08/16 16:06:07;;;;;;;4.78;2.95;;;32.60;44.40;;;;;;9172177;19;20025;-73
2022/08/16 16:09:16;;;;;;;6.68;2.75;;;32.50;44.40;;;;;;9171625;19;20022;-73
2022/08/16 16:12:21;;;;;;;9.73;3.60;;;32.50;44.40;;;;;;9177572;19;20015;-75
2022/08/16 16:15:47;;;;;;;6.25;3.30;;;32.40;44.50;;;;;;9173840;19;20050;-74
2022/08/16 16:18:52;;;;;;;5.40;3.70;;;32.30;44.50;;;;;;9172230;19;20030;-74
2022/08/16 16:21:57;;;;;;;8.93;4.00;;;32.30;44.50;;;;;;9177048;19;20364;-73
2022/08/16 16:25:06;;;;;;;8.02;4.85;;;32.30;44.60;;;;;;9174748;19;20014;-73
2022/08/16 16:28:11;;;;;;;5.38;4.20;;;32.20;44.50;;;;;;9173945;19;20014;-74
2022/08/16 16:31:37;;;;;;;6.72;3.72;;;32.10;44.60;;;;;;9173989;19;20014;-74